1991 MIREILLE (1991256N13171)


On this page: IBTrACS data - Map and Plots - Positions - Intensities - Original source data

Summary

Start Sep 13
End Oct 1
Basins EP
WP
LMI 130 kt
Sources jtwc_wp
tokyo
cma
hko
In WMO? Yes
Previous storm 1992 HSK0192 (SI)
Previous in basin 1991 KINNA (WP)
Concurrent storms 1991 CLAUDETTE (NA)
1991 KINNA (WP)
1992 HSK0192 (SI)
1991 MIREILLE (WP)
1991 LUKE (WP)
1991 MISSING (EP)
1991 NAT (WP)
1991 IGNACIO (EP)
1991 JIMENA (EP)
1991 MISSING (NI)
1991 KEVIN (EP)
1991 PAT (WP)
1991 ORCHID (WP)
Next in basin 1991 LUKE (WP)
Next storm 1991 LUKE (WP)

top of page IBTrACS Data: File Access

top of page HURSAT Data: File Access

Image of storm

top of page Plots:

Map of storm track will not appear if FTP is down
Time series of cyclone Maximum Sustained Wind will not appear if FTP is down
Time series of cyclone Minimum Central Pressure will not appear if FTP is down

top of page Track Data:Position

jtwc_wp tokyo cma hko
Date Lat Lon Lat Lon Lat Lon Lat Lon
1991-09-13 00:00:00 13.0 171.0 12.7 171.4
1991-09-13 06:00:00 12.5 170.4 12.5 170.5
1991-09-13 12:00:00 12.1 172.3 12.5 170.0 12.5 170.0
1991-09-13 18:00:00 12.4 170.9 12.6 169.3 12.6 169.3
1991-09-14 00:00:00 12.7 169.5 12.9 168.7 12.9 168.7
1991-09-14 06:00:00 13.0 168.1 13.1 167.9 13.1 167.9
1991-09-14 12:00:00 13.2 166.7 13.1 167.1 13.1 167.1 13.7 166.9
1991-09-14 18:00:00 13.5 165.3 13.4 166.0 13.4 166.0 13.5 165.9
1991-09-15 00:00:00 13.8 163.9 13.5 164.8 13.5 164.8 13.3 164.5
1991-09-15 06:00:00 14.0 162.6 13.6 163.1 13.6 163.1 13.6 163.0
1991-09-15 12:00:00 14.1 161.3 14.0 161.6 14.0 161.6 13.9 161.6
1991-09-15 18:00:00 14.2 160.0 14.5 159.8 14.5 159.9 14.4 159.9
1991-09-16 00:00:00 14.4 158.8 14.8 158.7 14.9 158.7 14.7 158.5
1991-09-16 06:00:00 14.7 157.6 15.1 157.4 15.1 157.6 15.0 157.4
1991-09-16 12:00:00 15.0 156.7 15.2 156.6 15.2 156.6 15.2 156.7
1991-09-16 18:00:00 15.4 155.9 15.4 155.9 15.5 155.9 15.5 155.9
1991-09-17 00:00:00 15.7 155.1 15.8 155.1 15.8 155.2 15.9 155.1
1991-09-17 06:00:00 16.0 154.3 16.0 154.4 16.0 154.4 16.1 154.3
1991-09-17 12:00:00 16.1 153.6 16.2 153.7 16.2 153.7 16.2 153.6
1991-09-17 18:00:00 16.0 152.9 16.2 153.1 16.2 153.1 16.2 153.0
1991-09-18 00:00:00 15.8 152.2 15.9 152.5 16.0 152.5 16.1 152.4
1991-09-18 06:00:00 15.6 151.6 15.7 151.7 15.8 151.8 15.9 151.8
1991-09-18 12:00:00 15.5 150.8 15.5 151.0 15.5 151.0 15.5 151.0
1991-09-18 18:00:00 15.4 149.9 15.4 150.2 15.4 150.2 15.4 150.0
1991-09-19 00:00:00 15.3 148.8 15.4 148.9 15.4 149.0 15.4 149.0
jtwc_wp tokyo cma hko
1991-09-19 06:00:00 15.4 147.5 15.5 147.5 15.4 147.6 15.5 147.5
1991-09-19 12:00:00 15.5 146.2 15.6 146.0 15.6 146.0 15.5 146.0
1991-09-19 18:00:00 15.5 144.7 15.6 144.5 15.6 144.5 15.4 144.4
1991-09-20 00:00:00 15.4 143.2 15.3 143.3 15.4 143.3 15.3 143.1
1991-09-20 06:00:00 15.1 141.9 15.1 141.8 15.2 142.0 15.2 141.8
1991-09-20 12:00:00 14.9 140.5 15.0 140.6 15.0 140.6 15.1 140.5
1991-09-20 18:00:00 14.6 139.3 14.6 139.2 14.7 139.4 14.7 139.2
1991-09-21 00:00:00 14.5 138.2 14.4 138.4 14.4 138.4 14.4 138.2
1991-09-21 06:00:00 14.5 137.2 14.4 137.2 14.4 137.2 14.4 137.2
1991-09-21 12:00:00 14.7 136.2 14.8 136.1 14.7 136.2 14.8 136.2
1991-09-21 18:00:00 15.0 135.3 15.1 135.3 15.1 135.3 15.1 135.2
1991-09-22 00:00:00 15.4 134.5 15.4 134.5 15.4 134.5 15.3 134.3
1991-09-22 06:00:00 15.8 133.8 15.8 133.7 15.7 133.8 15.8 133.7
1991-09-22 12:00:00 16.3 133.1 16.3 133.2 16.3 133.2 16.3 133.1
1991-09-22 18:00:00 16.9 132.5 16.8 132.6 16.9 132.6 16.9 132.5
1991-09-23 00:00:00 17.5 131.9 17.5 132.1 17.5 132.1 17.5 132.0
1991-09-23 06:00:00 18.0 131.4 18.2 131.5 18.2 131.5 18.2 131.4
1991-09-23 12:00:00 18.7 130.9 18.8 130.7 18.7 130.8 18.7 130.9
1991-09-23 18:00:00 19.1 130.2 19.1 130.1 19.1 130.1 19.0 130.1
1991-09-24 00:00:00 19.5 129.6 19.3 129.7 19.3 129.7 19.3 129.7
1991-09-24 06:00:00 19.9 129.2 19.9 129.2 20.0 129.2 19.9 129.2
1991-09-24 12:00:00 20.5 128.8 20.4 128.8 20.5 128.8 20.4 128.8
1991-09-24 18:00:00 20.9 128.2 20.9 128.2 21.0 128.2 21.0 128.1
1991-09-25 00:00:00 21.5 127.6 21.4 127.6 21.5 127.7 21.5 127.7
jtwc_wp tokyo cma hko
1991-09-25 06:00:00 22.2 127.1 22.2 127.2 22.2 127.3 22.1 127.5
1991-09-25 12:00:00 23.0 126.7 23.0 126.8 23.1 126.7 23.0 126.7
1991-09-25 18:00:00 23.7 126.1 23.7 126.1 23.8 126.2 23.7 126.2
1991-09-26 00:00:00 24.4 125.8 24.4 125.8 24.4 125.8 24.4 125.8
1991-09-26 06:00:00 25.4 125.7 25.4 125.7 25.4 125.7 25.3 125.7
1991-09-26 12:00:00 26.5 125.9 26.5 126.0 26.5 126.0 26.5 125.9
1991-09-26 18:00:00 28.1 126.4 28.1 126.4 28.0 126.4 28.0 126.4
1991-09-27 00:00:00 30.0 127.6 29.9 127.6 29.7 127.6 29.9 127.5
1991-09-27 06:00:00 32.3 129.2 32.5 129.3 32.5 129.3 32.4 129.2
1991-09-27 12:00:00 35.3 132.5 35.5 132.3 35.7 132.3 35.2 132.0
1991-09-27 18:00:00 38.5 137.0 39.0 136.3 39.1 136.4
1991-09-28 00:00:00 43.5 141.7 43.5 141.9
1991-09-28 06:00:00 47.0 148.0 47.0 148.0
1991-09-28 12:00:00 48.0 152.0 48.0 152.0
1991-09-28 18:00:00 49.0 155.0
1991-09-29 00:00:00 52.0 164.0
1991-09-29 06:00:00 53.0 169.0
1991-09-29 12:00:00 53.0 172.0
1991-09-29 18:00:00 53.0 174.0
1991-09-30 00:00:00 53.0 175.0
1991-09-30 06:00:00 54.0 177.0
1991-09-30 12:00:00 54.0 179.0
1991-09-30 18:00:00 54.0 180.0
1991-10-01 00:00:00 55.0 181.0

top of pageTrack Data:Intensity

jtwc_wp tokyo cma hko
Date Wind Pres Wind Pres Wind Pres Wind Pres
1991-09-13 00:00:00 1010. 23. 1008.
1991-09-13 06:00:00 1010. 23. 1008.
1991-09-13 12:00:00 10. 1010. 23. 1008.
1991-09-13 18:00:00 10. 1010. 23. 1008.
1991-09-14 00:00:00 15. 1008. 23. 1006.
1991-09-14 06:00:00 15. 1006. 23. 1004.
1991-09-14 12:00:00 20. 1006. 23. 1004. 25. 1000.
1991-09-14 18:00:00 20. 1006. 23. 1004. 30. 995.
1991-09-15 00:00:00 25. 1004. 29. 1002. 30. 995.
1991-09-15 06:00:00 25. 1004. 29. 1002. 30. 995.
1991-09-15 12:00:00 30. 1004. 29. 1002. 30. 995.
1991-09-15 18:00:00 35. 1004. 29. 1002. 40. 985.
1991-09-16 00:00:00 45. 35. 1000. 39. 995. 50. 975.
1991-09-16 06:00:00 55. 50. 990. 39. 990. 60. 965.
1991-09-16 12:00:00 65. 55. 985. 49. 985. 70. 955.
1991-09-16 18:00:00 75. 65. 970. 58. 980. 75. 950.
1991-09-17 00:00:00 75. 70. 965. 68. 975. 65. 960.
1991-09-17 06:00:00 75. 70. 965. 68. 975. 65. 960.
1991-09-17 12:00:00 70. 70. 965. 68. 970. 65. 960.
1991-09-17 18:00:00 70. 70. 965. 68. 965. 65. 960.
1991-09-18 00:00:00 70. 75. 960. 68. 965. 65. 960.
1991-09-18 06:00:00 70. 75. 960. 68. 965. 65. 960.
1991-09-18 12:00:00 75. 80. 955. 68. 965. 70. 955.
1991-09-18 18:00:00 80. 80. 955. 78. 955. 70. 955.
1991-09-19 00:00:00 80. 80. 955. 78. 955. 70. 955.
jtwc_wp tokyo cma hko
1991-09-19 06:00:00 80. 80. 955. 87. 950. 70. 955.
1991-09-19 12:00:00 80. 80. 955. 87. 950. 75. 950.
1991-09-19 18:00:00 85. 80. 955. 87. 950. 70. 955.
1991-09-20 00:00:00 85. 80. 955. 87. 950. 70. 955.
1991-09-20 06:00:00 85. 80. 955. 87. 950. 70. 955.
1991-09-20 12:00:00 85. 80. 955. 87. 950. 70. 955.
1991-09-20 18:00:00 85. 80. 955. 87. 950. 70. 955.
1991-09-21 00:00:00 90. 80. 955. 87. 950. 75. 950.
1991-09-21 06:00:00 95. 80. 950. 87. 950. 85. 940.
1991-09-21 12:00:00 100. 85. 945. 87. 950. 95. 935.
1991-09-21 18:00:00 110. 90. 940. 97. 940. 105. 925.
1991-09-22 00:00:00 115. 90. 940. 97. 940. 105. 925.
1991-09-22 06:00:00 125. 95. 935. 97. 940. 110. 920.
1991-09-22 12:00:00 130. 95. 935. 107. 935. 110. 920.
1991-09-22 18:00:00 130. 95. 935. 107. 935. 110. 920.
1991-09-23 00:00:00 130. 95. 930. 107. 935. 105. 925.
1991-09-23 06:00:00 130. 100. 925. 107. 935. 105. 925.
1991-09-23 12:00:00 130. 100. 925. 107. 930. 105. 925.
1991-09-23 18:00:00 130. 100. 925. 107. 930. 105. 925.
1991-09-24 00:00:00 130. 100. 925. 107. 930. 100. 930.
1991-09-24 06:00:00 130. 100. 925. 107. 930. 95. 935.
1991-09-24 12:00:00 130. 95. 930. 107. 930. 90. 935.
1991-09-24 18:00:00 125. 95. 930. 107. 930. 90. 935.
1991-09-25 00:00:00 125. 95. 935. 107. 930. 85. 940.
jtwc_wp tokyo cma hko
1991-09-25 06:00:00 120. 90. 940. 107. 930. 70. 950.
1991-09-25 12:00:00 115. 90. 940. 97. 940. 80. 945.
1991-09-25 18:00:00 115. 90. 940. 97. 940. 85. 940.
1991-09-26 00:00:00 115. 90. 940. 97. 940. 95. 930.
1991-09-26 06:00:00 115. 95. 935. 97. 940. 100. 925.
1991-09-26 12:00:00 115. 95. 935. 97. 940. 100. 925.
1991-09-26 18:00:00 110. 95. 930. 97. 940. 100. 925.
1991-09-27 00:00:00 100. 95. 935. 97. 940. 95. 930.
1991-09-27 06:00:00 95. 95. 935. 87. 945. 85. 940.
1991-09-27 12:00:00 85. 90. 945. 78. 955. 60. 960.
1991-09-27 18:00:00 75. 85. 950. 68. 960.
1991-09-28 00:00:00 65. 970. 68. 970.
1991-09-28 06:00:00 966. 58. 965.
1991-09-28 12:00:00 966. 49. 965.
1991-09-28 18:00:00 962.
1991-09-29 00:00:00 960.
1991-09-29 06:00:00 952.
1991-09-29 12:00:00 948.
1991-09-29 18:00:00 952.
1991-09-30 00:00:00 956.
1991-09-30 06:00:00 960.
1991-09-30 12:00:00 960.
1991-09-30 18:00:00 968.
1991-10-01 00:00:00 972.

top of page Links to source data

Source Source file Format
jtwc_wp bwp211991.txt ATCF
tokyo bst_all.txt:Line=40387:MIREILLE:9119 JMA text table
cma CH1991BST.txt:Storm=20:Mireille CMA text table
hko tc-besttrack-data-current.txt:Line=21742:MIREILLE HKO Text table